createdAt,value
2022-12-19T00:01:38.776Z,9.13
2022-12-19T00:04:09.290Z,9.88
2022-12-19T00:06:37.754Z,8.65
2022-12-19T00:09:05.530Z,8.55
2022-12-19T00:11:32.938Z,7.80
2022-12-19T00:14:00.162Z,4.93
2022-12-19T00:16:29.477Z,8.77
2022-12-19T00:18:58.702Z,5.43
2022-12-19T00:21:27.377Z,8.20
2022-12-19T00:23:54.234Z,19.38
2022-12-19T00:26:29.409Z,7.38
2022-12-19T00:28:59.312Z,5.45
2022-12-19T00:31:28.620Z,7.32
2022-12-19T00:33:56.075Z,7.47
2022-12-19T00:36:25.649Z,6.97
2022-12-19T00:38:54.270Z,9.48
2022-12-19T00:41:33.002Z,7.65
2022-12-19T00:44:05.405Z,6.50
2022-12-19T00:46:35.261Z,6.47
2022-12-19T00:49:03.161Z,6.10
2022-12-19T00:51:32.648Z,10.48
2022-12-19T00:54:00.172Z,7.85
2022-12-19T00:56:35.722Z,5.10
2022-12-19T00:59:07.004Z,12.50
2022-12-19T01:01:37.237Z,6.60
2022-12-19T01:06:53.621Z,9.07
2022-12-19T01:09:22.669Z,8.57
2022-12-19T01:12:08.579Z,6.03
2022-12-19T01:14:35.507Z,8.10
2022-12-19T01:17:02.342Z,14.57
2022-12-19T01:19:29.152Z,11.27
2022-12-19T01:21:56.038Z,6.75
2022-12-19T01:24:22.842Z,12.32
2022-12-19T01:26:50.011Z,13.48
2022-12-19T01:29:16.860Z,7.65
2022-12-19T01:31:43.812Z,10.23
2022-12-19T01:34:10.678Z,11.90
2022-12-19T01:36:40.172Z,12.63
2022-12-19T01:39:08.043Z,9.73
2022-12-19T01:41:35.365Z,11.50
2022-12-19T01:44:05.170Z,6.40
2022-12-19T01:46:48.511Z,10.02
2022-12-19T01:49:22.972Z,7.32
2022-12-19T01:51:53.899Z,10.60
2022-12-19T01:54:25.006Z,8.43
2022-12-19T01:56:55.123Z,11.30
2022-12-19T01:59:43.810Z,10.23
2022-12-19T02:02:19.675Z,7.65
2022-12-19T02:04:47.974Z,8.85
2022-12-19T02:07:17.688Z,9.63
2022-12-19T02:09:56.577Z,9.68
2022-12-19T02:12:31.258Z,9.25
2022-12-19T02:15:02.570Z,9.98
2022-12-19T02:17:39.140Z,6.97
2022-12-19T02:20:16.837Z,11.50
2022-12-19T02:23:02.515Z,11.45
2022-12-19T02:25:38.545Z,9.00
2022-12-19T02:28:30.291Z,13.68
2022-12-19T02:31:19.436Z,9.05
2022-12-19T02:33:47.931Z,8.82
2022-12-19T02:36:27.931Z,10.32
2022-12-19T02:39:22.117Z,8.57
2022-12-19T02:41:57.737Z,12.38
2022-12-19T02:44:35.938Z,13.38
2022-12-19T02:47:05.469Z,13.65
2022-12-19T02:49:36.396Z,9.73
2022-12-19T02:52:29.772Z,11.13
2022-12-19T02:55:04.297Z,14.02
2022-12-19T02:57:46.643Z,10.93
2022-12-19T03:00:19.085Z,11.10
2022-12-19T03:03:01.193Z,10.38
2022-12-19T03:05:50.508Z,10.60
2022-12-19T03:08:38.657Z,11.18
2022-12-19T03:11:09.935Z,9.07
2022-12-19T03:13:53.569Z,7.07
2022-12-19T03:16:20.650Z,10.40
2022-12-19T03:18:47.602Z,12.75
2022-12-19T03:21:44.007Z,8.55
2022-12-19T03:24:12.995Z,10.52
2022-12-19T03:26:53.188Z,10.20
2022-12-19T03:29:29.848Z,11.40
2022-12-19T03:31:59.570Z,11.98
2022-12-19T03:34:41.214Z,14.93
2022-12-19T03:37:18.007Z,14.68
2022-12-19T03:39:49.545Z,14.23
2022-12-19T03:42:37.232Z,13.98
2022-12-19T03:45:06.234Z,10.88
2022-12-19T03:47:48.579Z,15.15
2022-12-19T03:50:16.069Z,12.63
2022-12-19T03:53:19.927Z,13.70
2022-12-19T03:56:12.633Z,14.02
2022-12-19T03:58:45.509Z,16.75
2022-12-19T04:01:12.608Z,20.30
2022-12-19T04:03:39.539Z,24.45
2022-12-19T04:06:06.989Z,20.25
2022-12-19T04:08:35.643Z,19.70
2022-12-19T04:11:08.037Z,24.25
2022-12-19T04:13:53.318Z,18.58
2022-12-19T04:16:23.838Z,21.55
2022-12-19T04:21:40.385Z,21.83
2022-12-19T04:24:16.325Z,21.88
2022-12-19T04:26:47.734Z,18.58
2022-12-19T04:29:15.445Z,25.00
2022-12-19T04:31:43.487Z,18.58
2022-12-19T04:34:10.487Z,16.60
2022-12-19T04:36:37.489Z,16.23
2022-12-19T04:39:04.608Z,16.90
2022-12-19T04:41:31.691Z,21.42
2022-12-19T04:43:58.556Z,13.07
2022-12-19T04:46:25.481Z,16.60
2022-12-19T04:48:52.369Z,15.50
2022-12-19T04:51:19.287Z,19.20
2022-12-19T04:53:46.135Z,13.48
2022-12-19T04:56:12.986Z,16.27
2022-12-19T04:58:39.807Z,15.65
2022-12-19T05:01:08.457Z,15.68
2022-12-19T05:03:36.733Z,17.83
2022-12-19T05:06:08.492Z,13.90
2022-12-19T05:08:36.666Z,16.92
2022-12-19T05:11:05.014Z,16.23
2022-12-19T05:13:32.141Z,11.43
2022-12-19T05:16:07.052Z,20.42
2022-12-19T05:18:34.435Z,18.50
2022-12-19T05:21:01.451Z,16.88
2022-12-19T05:23:28.759Z,17.95
2022-12-19T05:25:59.003Z,14.60
2022-12-19T05:28:26.796Z,17.67
2022-12-19T05:31:06.311Z,16.73
2022-12-19T05:33:33.644Z,17.03
2022-12-19T05:36:00.628Z,13.25
2022-12-19T05:38:28.001Z,13.88
2022-12-19T05:40:55.064Z,17.80
2022-12-19T05:43:22.515Z,18.15
2022-12-19T05:45:49.640Z,20.23
2022-12-19T05:48:16.427Z,12.20
2022-12-19T05:50:49.215Z,12.23
2022-12-19T05:53:24.634Z,15.18
2022-12-19T05:55:53.005Z,18.13
2022-12-19T05:58:19.911Z,14.70
2022-12-19T06:00:46.818Z,21.70
2022-12-19T06:03:13.705Z,19.23
2022-12-19T06:05:40.520Z,16.92
2022-12-19T06:08:07.400Z,20.77
2022-12-19T06:10:34.331Z,21.63
2022-12-19T06:13:01.290Z,16.95
2022-12-19T06:15:28.718Z,23.02
2022-12-19T06:17:55.592Z,17.70
2022-12-19T06:20:22.944Z,19.83
2022-12-19T06:22:49.734Z,15.27
2022-12-19T06:25:16.589Z,22.85
2022-12-19T06:27:43.409Z,16.75
2022-12-19T06:30:10.876Z,15.98
2022-12-19T06:32:38.261Z,16.73
2022-12-19T06:35:06.026Z,23.20
2022-12-19T06:37:32.960Z,18.30
2022-12-19T06:39:59.770Z,22.92
2022-12-19T06:42:26.633Z,17.77
2022-12-19T06:44:55.924Z,18.58
2022-12-19T06:47:24.771Z,18.42
2022-12-19T06:49:51.739Z,24.20
2022-12-19T06:52:18.777Z,18.63
2022-12-19T06:54:45.790Z,18.02
2022-12-19T06:57:12.693Z,19.10
2022-12-19T06:59:39.510Z,16.88
2022-12-19T07:02:28.605Z,18.23
2022-12-19T07:05:03.203Z,21.33
2022-12-19T07:07:30.648Z,19.27
2022-12-19T07:09:57.489Z,22.10
2022-12-19T07:12:24.318Z,24.52
2022-12-19T07:14:53.634Z,21.42
2022-12-19T07:17:22.599Z,18.45
2022-12-19T07:19:49.409Z,21.55
2022-12-19T07:22:16.477Z,22.10
2022-12-19T07:24:43.648Z,16.23
2022-12-19T07:27:10.517Z,24.50
2022-12-19T07:29:37.335Z,19.65
2022-12-19T07:32:04.506Z,23.20
2022-12-19T07:34:31.387Z,24.13
2022-12-19T07:36:58.228Z,22.23
2022-12-19T07:39:25.382Z,22.48
2022-12-19T07:41:52.184Z,24.35
2022-12-19T07:44:29.938Z,23.83
2022-12-19T07:46:57.360Z,25.40
2022-12-19T07:49:24.317Z,28.90
2022-12-19T07:51:51.156Z,19.30
2022-12-19T07:54:17.999Z,25.85
2022-12-19T07:56:44.836Z,25.70
2022-12-19T07:59:13.096Z,19.55
2022-12-19T08:01:40.006Z,21.95
2022-12-19T08:04:06.983Z,21.80
2022-12-19T08:06:39.118Z,26.05
2022-12-19T08:09:07.765Z,21.33
2022-12-19T08:11:34.841Z,24.77
2022-12-19T08:14:01.667Z,27.88
2022-12-19T08:16:28.581Z,29.52
2022-12-19T08:18:55.753Z,24.38
2022-12-19T08:21:23.631Z,22.77
2022-12-19T08:23:51.988Z,25.38
2022-12-19T08:26:25.372Z,25.45
2022-12-19T08:28:53.648Z,24.67
2022-12-19T08:31:21.455Z,28.55
2022-12-19T08:33:48.543Z,25.45
2022-12-19T08:36:19.003Z,31.15
2022-12-19T08:41:13.069Z,24.90
2022-12-19T08:43:40.121Z,30.25
2022-12-19T08:46:08.069Z,25.25
2022-12-19T08:48:36.377Z,27.23
2022-12-19T08:51:08.633Z,28.27
2022-12-19T08:53:38.222Z,31.02
2022-12-19T08:56:08.227Z,30.60
2022-12-19T08:58:35.117Z,35.65
2022-12-19T09:01:06.082Z,30.30
2022-12-19T09:03:43.478Z,33.25
2022-12-19T09:06:20.429Z,33.30
2022-12-19T09:08:47.539Z,33.55
2022-12-19T09:11:16.684Z,30.08
2022-12-19T09:13:44.711Z,34.83
2022-12-19T09:16:17.171Z,37.08
2022-12-19T09:18:49.812Z,31.20
2022-12-19T09:21:17.991Z,35.70
2022-12-19T09:23:49.729Z,34.00
2022-12-19T09:26:16.786Z,36.30
2022-12-19T09:28:43.598Z,29.88
2022-12-19T09:31:16.733Z,32.10
2022-12-19T09:33:44.092Z,34.67
2022-12-19T09:36:24.902Z,30.65
2022-12-19T09:38:56.373Z,35.25
2022-12-19T09:41:23.127Z,35.22
2022-12-19T09:44:18.990Z,27.30
2022-12-19T09:46:57.514Z,35.70
2022-12-19T09:49:41.960Z,29.50
2022-12-19T09:52:24.004Z,26.52
2022-12-19T09:55:01.480Z,34.92
2022-12-19T09:57:57.246Z,27.83
2022-12-19T10:00:39.430Z,26.75
2022-12-19T10:03:39.726Z,36.75
2022-12-19T10:07:11.197Z,34.33
2022-12-19T10:10:55.566Z,24.35
2022-12-19T10:12:43.777Z,26.23
2022-12-19T10:15:23.401Z,26.17
2022-12-19T10:18:10.246Z,29.58
2022-12-19T10:21:10.963Z,29.52
2022-12-19T10:24:18.874Z,27.33
2022-12-19T10:27:03.630Z,28.25
2022-12-19T10:29:41.937Z,25.55
2022-12-19T10:32:17.143Z,24.77
2022-12-19T10:34:45.954Z,30.85
2022-12-19T10:37:26.521Z,28.88
2022-12-19T10:40:28.411Z,27.17
2022-12-19T10:42:58.483Z,24.13
2022-12-19T10:45:37.802Z,29.05
2022-12-19T10:48:09.895Z,29.15
2022-12-19T10:50:38.017Z,21.50
2022-12-19T10:53:04.758Z,23.90
2022-12-19T10:55:50.918Z,24.45
2022-12-19T10:58:20.352Z,29.83
2022-12-19T11:01:10.005Z,29.40
2022-12-19T11:03:38.785Z,23.73
2022-12-19T11:06:07.012Z,25.65
2022-12-19T11:08:36.537Z,23.52
2022-12-19T11:12:51.139Z,29.80
2022-12-19T11:17:10.016Z,28.80
2022-12-19T11:25:21.773Z,24.60
2022-12-19T11:29:25.475Z,27.33
2022-12-19T11:30:09.926Z,19.67
2022-12-19T11:30:42.998Z,27.90
2022-12-19T11:30:48.176Z,21.73
2022-12-19T11:34:23.571Z,25.38
2022-12-19T11:36:59.481Z,25.48
2022-12-19T11:39:36.860Z,27.08
2022-12-19T11:42:34.105Z,23.90
2022-12-19T11:45:25.202Z,26.35
2022-12-19T11:47:57.365Z,20.70
2022-12-19T11:50:31.008Z,27.10
2022-12-19T11:53:19.388Z,28.65
2022-12-19T11:56:15.864Z,25.48
2022-12-19T11:58:53.016Z,25.73
2022-12-19T12:01:34.933Z,26.77
2022-12-19T12:04:05.025Z,28.38
2022-12-19T12:06:37.948Z,22.70
2022-12-19T12:11:33.618Z,22.25
2022-12-19T12:18:07.460Z,29.77
2022-12-19T12:26:30.579Z,31.70
2022-12-19T12:31:11.599Z,25.70
2022-12-19T12:31:28.339Z,23.88
2022-12-19T12:31:40.361Z,26.75
2022-12-19T12:32:03.193Z,28.10
2022-12-19T12:35:46.562Z,26.60
2022-12-19T12:35:52.121Z,26.65
2022-12-19T12:38:22.601Z,24.92
2022-12-19T12:40:57.056Z,30.48
2022-12-19T12:43:35.987Z,26.70
2022-12-19T12:46:05.338Z,26.42
2022-12-19T12:48:42.982Z,26.42
2022-12-19T12:51:10.881Z,23.40
2022-12-19T12:53:42.456Z,24.45
2022-12-19T12:56:12.174Z,33.40
2022-12-19T12:58:54.356Z,24.05
2022-12-19T13:01:27.200Z,27.85
2022-12-19T13:03:58.895Z,23.45
2022-12-19T13:06:50.575Z,29.63
2022-12-19T13:09:29.668Z,25.45
2022-12-19T13:12:39.019Z,26.60
2022-12-19T13:15:27.689Z,23.88
2022-12-19T13:17:54.521Z,31.65
2022-12-19T13:20:24.061Z,29.63
2022-12-19T13:22:58.666Z,23.80
2022-12-19T13:25:34.727Z,26.95
2022-12-19T13:28:01.558Z,27.13
2022-12-19T13:30:30.078Z,31.60
2022-12-19T13:32:57.851Z,30.98
2022-12-19T13:35:30.491Z,22.98
2022-12-19T13:39:54.508Z,24.30
2022-12-19T13:41:48.251Z,23.88
2022-12-19T13:44:20.728Z,24.63
2022-12-19T13:46:48.094Z,23.95
2022-12-19T13:49:30.495Z,25.50
2022-12-19T13:52:00.923Z,23.30
2022-12-19T13:54:45.811Z,27.58
2022-12-19T13:57:28.167Z,23.83
2022-12-19T14:00:01.379Z,25.92
2022-12-19T14:02:51.347Z,25.02
2022-12-19T14:05:34.130Z,28.08
2022-12-19T14:08:21.556Z,25.48
2022-12-19T14:11:32.480Z,28.08
2022-12-19T14:14:16.067Z,24.45
2022-12-19T14:16:46.073Z,25.33
2022-12-19T14:19:44.174Z,20.75
2022-12-19T14:22:24.694Z,30.10
2022-12-19T14:25:07.446Z,21.38
2022-12-19T14:28:25.368Z,28.08
2022-12-19T14:30:54.843Z,23.73
2022-12-19T14:33:43.422Z,21.35
2022-12-19T14:36:26.116Z,23.42
2022-12-19T14:39:25.379Z,24.90
2022-12-19T14:42:03.394Z,23.02
2022-12-19T14:52:36.193Z,25.77
2022-12-19T14:52:51.708Z,22.60
2022-12-19T14:54:05.765Z,27.85
2022-12-19T14:54:50.326Z,25.80
2022-12-19T14:59:02.007Z,27.83
2022-12-19T15:01:34.590Z,23.75
2022-12-19T15:04:48.236Z,24.23
2022-12-19T15:07:08.732Z,23.23
2022-12-19T15:11:04.724Z,24.98
2022-12-19T15:14:54.465Z,20.15
2022-12-19T15:16:28.652Z,24.65
2022-12-19T15:18:58.642Z,28.38
2022-12-19T15:21:28.026Z,24.75
2022-12-19T15:23:55.163Z,27.50
2022-12-19T15:26:34.596Z,26.67
2022-12-19T15:29:02.984Z,28.33
2022-12-19T15:31:40.249Z,25.35
2022-12-19T15:34:48.686Z,26.98
2022-12-19T15:37:14.303Z,27.65
2022-12-19T15:39:42.980Z,24.08
2022-12-19T15:42:36.093Z,21.52
2022-12-19T15:45:04.879Z,28.38
2022-12-19T15:47:36.960Z,27.08
2022-12-19T15:50:16.042Z,27.05
2022-12-19T15:52:43.162Z,28.20
2022-12-19T15:55:18.087Z,29.27
2022-12-19T15:57:49.067Z,29.13
2022-12-19T16:00:24.909Z,25.98
2022-12-19T16:03:23.633Z,23.83
2022-12-19T16:05:41.386Z,22.45
2022-12-19T16:08:18.417Z,32.97
2022-12-19T16:10:48.336Z,24.20
2022-12-19T16:13:22.271Z,24.02
2022-12-19T16:16:39.728Z,30.35
2022-12-19T17:23:37.079Z,31.90
2022-12-19T17:26:04.112Z,33.55
2022-12-19T17:28:30.956Z,35.20
2022-12-19T17:31:02.604Z,30.10
2022-12-19T17:33:35.218Z,32.13
2022-12-19T17:36:02.775Z,36.15
2022-12-19T17:38:29.811Z,38.45
2022-12-19T17:40:57.307Z,33.78
2022-12-19T17:43:24.306Z,35.67
2022-12-19T17:45:52.408Z,33.35
2022-12-19T17:48:31.395Z,36.15
2022-12-19T17:50:59.183Z,39.70
2022-12-19T17:53:26.671Z,41.03
2022-12-19T17:55:53.545Z,35.25
2022-12-19T17:58:21.638Z,38.85
2022-12-19T18:00:49.907Z,35.28
2022-12-19T18:03:25.536Z,35.95
2022-12-19T18:05:54.933Z,41.83
2022-12-19T18:08:28.552Z,40.28
2022-12-19T18:10:57.109Z,31.25
2022-12-19T18:13:26.318Z,42.10
2022-12-19T18:15:57.237Z,40.08
2022-12-19T18:18:34.383Z,36.17
2022-12-19T18:21:02.527Z,40.50
2022-12-19T18:23:32.773Z,37.05
2022-12-19T18:26:02.456Z,45.53
2022-12-19T18:28:30.119Z,39.42
2022-12-19T18:31:20.980Z,41.63
2022-12-19T18:33:48.506Z,43.03
2022-12-19T18:36:24.832Z,37.72
2022-12-19T18:38:52.382Z,37.58
2022-12-19T18:41:20.098Z,40.95
2022-12-19T18:43:47.481Z,39.25
2022-12-19T18:46:23.284Z,41.70
2022-12-19T18:48:50.338Z,43.22
2022-12-19T18:51:20.950Z,42.05
2022-12-19T18:53:49.001Z,48.67
2022-12-19T18:56:16.020Z,38.60
2022-12-19T18:58:42.876Z,39.08
2022-12-19T19:01:18.937Z,37.75
2022-12-19T19:03:55.079Z,43.10
2022-12-19T19:06:37.237Z,41.08
2022-12-19T19:09:04.612Z,44.13
2022-12-19T19:11:49.767Z,49.05
2022-12-19T19:14:16.666Z,46.38
2022-12-19T19:16:43.803Z,51.50
2022-12-19T19:19:14.452Z,49.80
2022-12-19T19:21:42.669Z,47.50
2022-12-19T19:24:14.786Z,44.63
2022-12-19T19:26:41.632Z,43.90
2022-12-19T19:29:09.674Z,46.97
2022-12-19T19:31:40.897Z,42.88
2022-12-19T19:34:21.830Z,45.47
2022-12-19T19:36:54.714Z,43.78
2022-12-19T19:39:22.905Z,53.67
2022-12-19T19:41:49.854Z,40.45
2022-12-19T19:44:16.766Z,36.17
2022-12-19T19:46:43.725Z,35.03
2022-12-19T19:49:10.657Z,43.85
2022-12-19T19:51:37.541Z,43.30
2022-12-19T19:54:04.727Z,36.72
2022-12-19T19:56:32.341Z,33.72
2022-12-19T19:59:00.680Z,39.10
2022-12-19T20:01:27.848Z,34.83
2022-12-19T20:03:54.912Z,37.65
2022-12-19T20:06:21.970Z,35.38
2022-12-19T20:08:49.421Z,36.45
2022-12-19T20:11:16.729Z,41.55
2022-12-19T20:13:43.780Z,38.85
2022-12-19T20:16:15.654Z,45.10
2022-12-19T20:18:46.167Z,38.00
2022-12-19T20:21:14.045Z,36.63
2022-12-19T20:23:44.214Z,42.83
2022-12-19T20:26:12.973Z,38.10
2022-12-19T20:28:47.867Z,41.35
2022-12-19T20:31:17.597Z,36.72
2022-12-19T20:33:45.107Z,41.72
2022-12-19T20:36:12.871Z,40.10
2022-12-19T20:38:40.520Z,38.60
2022-12-19T20:41:07.683Z,36.70
2022-12-19T20:43:34.626Z,41.70
2022-12-19T20:46:03.539Z,34.83
2022-12-19T20:48:30.388Z,34.53
2022-12-19T20:51:01.773Z,42.83
2022-12-19T20:53:28.817Z,37.67
2022-12-19T20:55:58.856Z,39.47
2022-12-19T20:58:27.529Z,50.03
2022-12-19T21:01:07.197Z,37.83
2022-12-19T21:03:34.929Z,33.72
2022-12-19T21:06:02.213Z,31.38
2022-12-19T21:08:29.295Z,32.70
2022-12-19T21:10:56.442Z,29.83
2022-12-19T21:13:23.874Z,33.72
2022-12-19T21:15:55.094Z,33.28
2022-12-19T21:18:22.955Z,34.17
2022-12-19T21:20:53.247Z,30.05
2022-12-19T21:23:20.690Z,30.25
2022-12-19T21:25:47.531Z,29.48
2022-12-19T21:28:15.320Z,26.13
2022-12-19T21:30:42.568Z,20.88
2022-12-19T21:33:09.593Z,23.70
2022-12-19T21:35:38.120Z,19.55
2022-12-19T21:38:05.089Z,19.15
2022-12-19T21:40:32.011Z,17.77
2022-12-19T21:42:58.849Z,18.48
2022-12-19T21:45:25.729Z,17.75
2022-12-19T21:47:52.560Z,18.75
2022-12-19T21:50:19.527Z,13.93
2022-12-19T21:52:48.204Z,16.35
2022-12-19T21:55:18.311Z,16.17
2022-12-19T21:57:45.315Z,19.77
2022-12-19T22:00:13.279Z,15.00
2022-12-19T22:02:50.821Z,15.60
2022-12-19T22:05:27.148Z,13.75
2022-12-19T22:07:53.931Z,17.92
2022-12-19T22:10:20.897Z,14.70
2022-12-19T22:12:48.613Z,13.48
2022-12-19T22:15:15.459Z,13.10
2022-12-19T22:17:43.842Z,12.75
2022-12-19T22:20:11.061Z,12.52
2022-12-19T22:22:37.949Z,13.35
2022-12-19T22:25:05.124Z,13.93
2022-12-19T22:27:31.966Z,10.07
2022-12-19T22:30:00.253Z,11.13
2022-12-19T22:32:30.336Z,10.95
2022-12-19T22:34:57.148Z,12.52
2022-12-19T22:37:24.018Z,11.73
2022-12-19T22:39:50.876Z,10.15
2022-12-19T22:42:17.661Z,11.23
2022-12-19T22:44:44.472Z,10.80
2022-12-19T22:47:11.244Z,17.38
2022-12-19T22:49:38.118Z,14.65
2022-12-19T22:52:05.047Z,12.38
2022-12-19T22:54:31.869Z,13.20
2022-12-19T22:56:58.751Z,10.75
2022-12-19T22:59:25.573Z,11.35
2022-12-19T23:01:54.156Z,10.38
2022-12-19T23:04:21.244Z,12.32
2022-12-19T23:06:48.180Z,10.48
2022-12-19T23:09:16.957Z,10.48
2022-12-19T23:11:46.685Z,9.95
2022-12-19T23:14:16.792Z,11.95
2022-12-19T23:16:44.636Z,11.05
2022-12-19T23:19:12.264Z,13.48
2022-12-19T23:21:39.065Z,12.05
2022-12-19T23:24:06.476Z,10.68
2022-12-19T23:26:36.252Z,11.25
2022-12-19T23:29:11.642Z,12.30
2022-12-19T23:31:44.259Z,12.40
2022-12-19T23:34:12.138Z,14.77
2022-12-19T23:39:26.373Z,17.50
2022-12-19T23:41:53.176Z,16.15
2022-12-19T23:44:20.255Z,16.63
2022-12-19T23:46:47.138Z,15.88
2022-12-19T23:49:14.246Z,17.73
2022-12-19T23:51:41.425Z,19.50
2022-12-19T23:54:08.893Z,21.60
2022-12-19T23:56:36.306Z,24.35
2022-12-19T23:59:03.264Z,26.27
